sensor_id;sensor_type;location;lat;lon;timestamp;temperature;humidity
31809;DHT22;18379;48.208;-1.518;2022-12-18T00:02:28;-1.50;99.90
31809;DHT22;18379;48.208;-1.518;2022-12-18T00:07:29;-1.50;99.90
31809;DHT22;18379;48.208;-1.518;2022-12-18T00:12:29;-1.50;99.90
31809;DHT22;18379;48.208;-1.518;2022-12-18T00:17:30;-1.50;99.90
31809;DHT22;18379;48.208;-1.518;2022-12-18T00:22:31;-1.60;99.90
31809;DHT22;18379;48.208;-1.518;2022-12-18T00:27:31;-1.60;99.90
31809;DHT22;18379;48.208;-1.518;2022-12-18T00:32:33;-1.50;99.90
31809;DHT22;18379;48.208;-1.518;2022-12-18T00:37:34;-1.60;99.90
31809;DHT22;18379;48.208;-1.518;2022-12-18T00:42:36;-1.50;99.90
31809;DHT22;18379;48.208;-1.518;2022-12-18T00:47:56;-1.60;99.90
31809;DHT22;18379;48.208;-1.518;2022-12-18T00:52:57;-1.50;99.90
31809;DHT22;18379;48.208;-1.518;2022-12-18T00:57:58;-1.60;99.90
31809;DHT22;18379;48.208;-1.518;2022-12-18T01:02:59;-1.50;99.90
31809;DHT22;18379;48.208;-1.518;2022-12-18T01:07:59;-1.50;99.90
31809;DHT22;18379;48.208;-1.518;2022-12-18T01:13:00;-1.50;99.90
31809;DHT22;18379;48.208;-1.518;2022-12-18T01:18:01;-1.50;99.90
31809;DHT22;18379;48.208;-1.518;2022-12-18T01:23:02;-1.50;99.90
31809;DHT22;18379;48.208;-1.518;2022-12-18T01:28:03;-1.50;99.90
31809;DHT22;18379;48.208;-1.518;2022-12-18T01:33:04;-1.40;99.90
31809;DHT22;18379;48.208;-1.518;2022-12-18T01:38:05;-1.40;99.90
31809;DHT22;18379;48.208;-1.518;2022-12-18T01:43:11;-1.40;99.90
31809;DHT22;18379;48.208;-1.518;2022-12-18T01:48:16;-1.40;99.90
31809;DHT22;18379;48.208;-1.518;2022-12-18T01:53:20;-1.40;99.90
31809;DHT22;18379;48.208;-1.518;2022-12-18T01:58:27;-1.40;99.90
31809;DHT22;18379;48.208;-1.518;2022-12-18T02:03:30;-1.30;99.90
31809;DHT22;18379;48.208;-1.518;2022-12-18T02:08:41;-1.30;99.90
31809;DHT22;18379;48.208;-1.518;2022-12-18T02:19:00;-1.30;99.90
31809;DHT22;18379;48.208;-1.518;2022-12-18T02:29:24;-1.30;99.90
31809;DHT22;18379;48.208;-1.518;2022-12-18T02:34:32;-1.30;99.90
31809;DHT22;18379;48.208;-1.518;2022-12-18T02:39:37;-1.30;99.90
31809;DHT22;18379;48.208;-1.518;2022-12-18T02:44:43;-1.30;99.90
31809;DHT22;18379;48.208;-1.518;2022-12-18T03:00:23;-1.20;99.90
31809;DHT22;18379;48.208;-1.518;2022-12-18T03:05:43;-1.20;99.90
31809;DHT22;18379;48.208;-1.518;2022-12-18T03:11:01;-1.20;99.90
31809;DHT22;18379;48.208;-1.518;2022-12-18T03:16:08;-1.10;99.90
31809;DHT22;18379;48.208;-1.518;2022-12-18T03:21:12;-1.10;99.90
31809;DHT22;18379;48.208;-1.518;2022-12-18T03:26:16;-1.10;99.90
31809;DHT22;18379;48.208;-1.518;2022-12-18T03:31:21;-1.00;99.90
31809;DHT22;18379;48.208;-1.518;2022-12-18T03:36:23;-1.00;99.90
31809;DHT22;18379;48.208;-1.518;2022-12-18T03:41:43;-0.90;99.90
31809;DHT22;18379;48.208;-1.518;2022-12-18T03:46:56;-0.90;99.90
31809;DHT22;18379;48.208;-1.518;2022-12-18T03:52:06;-0.90;99.90
31809;DHT22;18379;48.208;-1.518;2022-12-18T03:57:20;-0.80;99.90
31809;DHT22;18379;48.208;-1.518;2022-12-18T04:02:23;-0.80;99.90
31809;DHT22;18379;48.208;-1.518;2022-12-18T04:07:25;-0.70;99.90
31809;DHT22;18379;48.208;-1.518;2022-12-18T04:12:28;-0.80;99.90
31809;DHT22;18379;48.208;-1.518;2022-12-18T04:17:29;-0.60;99.90
31809;DHT22;18379;48.208;-1.518;2022-12-18T04:22:30;-0.50;99.90
31809;DHT22;18379;48.208;-1.518;2022-12-18T04:27:31;-0.40;99.90
31809;DHT22;18379;48.208;-1.518;2022-12-18T04:32:33;-0.40;99.90
31809;DHT22;18379;48.208;-1.518;2022-12-18T04:37:34;-0.30;99.90
31809;DHT22;18379;48.208;-1.518;2022-12-18T04:42:35;-0.30;99.90
31809;DHT22;18379;48.208;-1.518;2022-12-18T04:47:36;-0.30;99.90
31809;DHT22;18379;48.208;-1.518;2022-12-18T04:52:37;-0.20;99.90
31809;DHT22;18379;48.208;-1.518;2022-12-18T04:57:37;-0.20;99.90
31809;DHT22;18379;48.208;-1.518;2022-12-18T05:02:38;-0.20;99.90
31809;DHT22;18379;48.208;-1.518;2022-12-18T05:07:39;-0.20;99.90
31809;DHT22;18379;48.208;-1.518;2022-12-18T05:12:40;-0.10;99.90
31809;DHT22;18379;48.208;-1.518;2022-12-18T05:17:59;-0.20;99.90
31809;DHT22;18379;48.208;-1.518;2022-12-18T05:22:59;-0.20;99.90
31809;DHT22;18379;48.208;-1.518;2022-12-18T05:28:00;-0.10;99.90
31809;DHT22;18379;48.208;-1.518;2022-12-18T05:33:01;-0.10;99.90
31809;DHT22;18379;48.208;-1.518;2022-12-18T05:38:02;0.00;99.90
31809;DHT22;18379;48.208;-1.518;2022-12-18T05:43:02;0.10;99.90
31809;DHT22;18379;48.208;-1.518;2022-12-18T05:48:04;0.10;99.90
31809;DHT22;18379;48.208;-1.518;2022-12-18T05:53:05;0.20;99.90
31809;DHT22;18379;48.208;-1.518;2022-12-18T05:58:07;0.30;99.90
31809;DHT22;18379;48.208;-1.518;2022-12-18T06:03:10;0.30;99.90
31809;DHT22;18379;48.208;-1.518;2022-12-18T06:08:12;0.40;99.90
31809;DHT22;18379;48.208;-1.518;2022-12-18T06:13:13;0.40;99.90
31809;DHT22;18379;48.208;-1.518;2022-12-18T06:18:14;0.40;99.90
31809;DHT22;18379;48.208;-1.518;2022-12-18T06:23:15;0.40;99.90
31809;DHT22;18379;48.208;-1.518;2022-12-18T06:28:16;0.50;99.90
31809;DHT22;18379;48.208;-1.518;2022-12-18T06:33:17;0.50;99.90
31809;DHT22;18379;48.208;-1.518;2022-12-18T06:38:17;0.60;99.90
31809;DHT22;18379;48.208;-1.518;2022-12-18T06:43:18;0.60;99.90
31809;DHT22;18379;48.208;-1.518;2022-12-18T06:48:20;0.70;99.90
31809;DHT22;18379;48.208;-1.518;2022-12-18T06:53:20;0.80;99.90
31809;DHT22;18379;48.208;-1.518;2022-12-18T06:58:21;0.90;99.90
31809;DHT22;18379;48.208;-1.518;2022-12-18T07:03:22;0.90;99.90
31809;DHT22;18379;48.208;-1.518;2022-12-18T07:08:23;0.90;99.90
31809;DHT22;18379;48.208;-1.518;2022-12-18T07:13:24;0.90;99.90
31809;DHT22;18379;48.208;-1.518;2022-12-18T07:18:24;1.00;99.90
31809;DHT22;18379;48.208;-1.518;2022-12-18T07:23:25;1.10;99.90
31809;DHT22;18379;48.208;-1.518;2022-12-18T07:28:26;1.10;99.90
31809;DHT22;18379;48.208;-1.518;2022-12-18T07:33:27;1.10;99.90
31809;DHT22;18379;48.208;-1.518;2022-12-18T07:38:28;1.10;99.90
31809;DHT22;18379;48.208;-1.518;2022-12-18T07:43:28;1.20;99.90
31809;DHT22;18379;48.208;-1.518;2022-12-18T07:48:30;1.20;99.90
31809;DHT22;18379;48.208;-1.518;2022-12-18T07:53:32;1.20;99.90
31809;DHT22;18379;48.208;-1.518;2022-12-18T07:58:33;1.20;99.90
31809;DHT22;18379;48.208;-1.518;2022-12-18T08:03:35;1.30;99.90
31809;DHT22;18379;48.208;-1.518;2022-12-18T08:08:36;1.40;99.90
31809;DHT22;18379;48.208;-1.518;2022-12-18T08:13:37;1.40;99.90
31809;DHT22;18379;48.208;-1.518;2022-12-18T08:18:38;1.40;99.90
31809;DHT22;18379;48.208;-1.518;2022-12-18T08:23:39;1.50;99.90
31809;DHT22;18379;48.208;-1.518;2022-12-18T08:28:40;1.50;99.90
31809;DHT22;18379;48.208;-1.518;2022-12-18T08:33:42;1.60;99.90
31809;DHT22;18379;48.208;-1.518;2022-12-18T08:38:43;1.70;99.90
31809;DHT22;18379;48.208;-1.518;2022-12-18T08:43:44;1.70;99.90
31809;DHT22;18379;48.208;-1.518;2022-12-18T08:49:05;1.80;99.90
31809;DHT22;18379;48.208;-1.518;2022-12-18T08:54:06;1.80;99.90
31809;DHT22;18379;48.208;-1.518;2022-12-18T08:59:08;1.90;99.90
31809;DHT22;18379;48.208;-1.518;2022-12-18T09:04:09;2.00;99.90
31809;DHT22;18379;48.208;-1.518;2022-12-18T09:09:10;2.00;99.90
31809;DHT22;18379;48.208;-1.518;2022-12-18T09:14:11;2.20;99.90
31809;DHT22;18379;48.208;-1.518;2022-12-18T09:19:12;2.30;99.90
31809;DHT22;18379;48.208;-1.518;2022-12-18T09:24:14;2.30;99.90
31809;DHT22;18379;48.208;-1.518;2022-12-18T09:29:15;2.30;99.90
31809;DHT22;18379;48.208;-1.518;2022-12-18T09:34:17;2.40;99.90
31809;DHT22;18379;48.208;-1.518;2022-12-18T09:39:18;2.40;99.90
31809;DHT22;18379;48.208;-1.518;2022-12-18T09:44:42;2.40;99.90
31809;DHT22;18379;48.208;-1.518;2022-12-18T09:49:46;2.50;99.90
31809;DHT22;18379;48.208;-1.518;2022-12-18T09:54:55;2.50;99.90
31809;DHT22;18379;48.208;-1.518;2022-12-18T10:00:21;2.40;99.90
31809;DHT22;18379;48.208;-1.518;2022-12-18T10:11:56;2.30;99.90
31809;DHT22;18379;48.208;-1.518;2022-12-18T10:32:23;2.30;99.90
31809;DHT22;18379;48.208;-1.518;2022-12-18T10:37:27;2.40;99.90
31809;DHT22;18379;48.208;-1.518;2022-12-18T10:42:30;2.40;99.90
31809;DHT22;18379;48.208;-1.518;2022-12-18T10:47:35;2.50;99.90
31809;DHT22;18379;48.208;-1.518;2022-12-18T10:52:39;2.50;99.90
31809;DHT22;18379;48.208;-1.518;2022-12-18T10:57:43;2.50;99.90
31809;DHT22;18379;48.208;-1.518;2022-12-18T11:02:44;2.60;99.90
31809;DHT22;18379;48.208;-1.518;2022-12-18T11:07:49;2.70;99.90
31809;DHT22;18379;48.208;-1.518;2022-12-18T11:12:50;2.70;99.90
31809;DHT22;18379;48.208;-1.518;2022-12-18T11:17:52;2.70;99.90
31809;DHT22;18379;48.208;-1.518;2022-12-18T11:22:59;2.80;99.90
31809;DHT22;18379;48.208;-1.518;2022-12-18T11:28:08;2.80;99.90
31809;DHT22;18379;48.208;-1.518;2022-12-18T11:33:25;2.80;99.90
31809;DHT22;18379;48.208;-1.518;2022-12-18T11:38:38;2.80;99.90
31809;DHT22;18379;48.208;-1.518;2022-12-18T11:48:58;2.90;99.90
31809;DHT22;18379;48.208;-1.518;2022-12-18T11:54:00;2.90;99.90
31809;DHT22;18379;48.208;-1.518;2022-12-18T11:59:06;3.00;99.90
31809;DHT22;18379;48.208;-1.518;2022-12-18T12:04:32;3.00;99.90
31809;DHT22;18379;48.208;-1.518;2022-12-18T12:15:02;3.10;99.90
31809;DHT22;18379;48.208;-1.518;2022-12-18T12:25:35;3.30;99.90
31809;DHT22;18379;48.208;-1.518;2022-12-18T12:36:02;3.40;99.90
31809;DHT22;18379;48.208;-1.518;2022-12-18T12:41:12;3.50;99.90
31809;DHT22;18379;48.208;-1.518;2022-12-18T12:46:44;3.50;99.90
31809;DHT22;18379;48.208;-1.518;2022-12-18T12:52:10;3.50;99.90
31809;DHT22;18379;48.208;-1.518;2022-12-18T13:08:30;3.60;99.90
31809;DHT22;18379;48.208;-1.518;2022-12-18T13:14:00;3.60;99.90
31809;DHT22;18379;48.208;-1.518;2022-12-18T13:19:01;3.70;99.90
31809;DHT22;18379;48.208;-1.518;2022-12-18T13:24:25;3.80;99.90
31809;DHT22;18379;48.208;-1.518;2022-12-18T13:29:44;3.80;99.90
31809;DHT22;18379;48.208;-1.518;2022-12-18T13:34:47;3.90;99.90
31809;DHT22;18379;48.208;-1.518;2022-12-18T13:39:48;3.90;99.90
31809;DHT22;18379;48.208;-1.518;2022-12-18T13:44:49;3.80;99.90
31809;DHT22;18379;48.208;-1.518;2022-12-18T13:49:51;3.80;99.90
31809;DHT22;18379;48.208;-1.518;2022-12-18T13:55:01;3.80;99.90
31809;DHT22;18379;48.208;-1.518;2022-12-18T14:00:27;3.80;99.90
31809;DHT22;18379;48.208;-1.518;2022-12-18T14:05:39;3.80;99.90
31809;DHT22;18379;48.208;-1.518;2022-12-18T14:10:47;3.90;99.90
31809;DHT22;18379;48.208;-1.518;2022-12-18T14:15:56;3.90;99.90
31809;DHT22;18379;48.208;-1.518;2022-12-18T14:20:59;3.90;99.90
31809;DHT22;18379;48.208;-1.518;2022-12-18T14:26:26;4.00;99.90
31809;DHT22;18379;48.208;-1.518;2022-12-18T14:31:31;4.00;99.90
31809;DHT22;18379;48.208;-1.518;2022-12-18T14:36:35;4.10;99.90
31809;DHT22;18379;48.208;-1.518;2022-12-18T14:41:36;4.20;99.90
31809;DHT22;18379;48.208;-1.518;2022-12-18T14:46:44;4.30;99.90
31809;DHT22;18379;48.208;-1.518;2022-12-18T14:51:52;4.30;99.90
31809;DHT22;18379;48.208;-1.518;2022-12-18T14:57:01;4.40;99.90
31809;DHT22;18379;48.208;-1.518;2022-12-18T15:02:22;4.40;99.90
31809;DHT22;18379;48.208;-1.518;2022-12-18T15:07:26;4.40;99.90
31809;DHT22;18379;48.208;-1.518;2022-12-18T15:23:02;4.60;99.90
31809;DHT22;18379;48.208;-1.518;2022-12-18T15:39:00;4.80;99.90
31809;DHT22;18379;48.208;-1.518;2022-12-18T15:44:22;4.80;99.90
31809;DHT22;18379;48.208;-1.518;2022-12-18T15:49:23;4.80;99.90
31809;DHT22;18379;48.208;-1.518;2022-12-18T15:54:26;4.80;99.90
31809;DHT22;18379;48.208;-1.518;2022-12-18T15:59:49;4.80;99.90
31809;DHT22;18379;48.208;-1.518;2022-12-18T16:04:51;4.90;99.90
31809;DHT22;18379;48.208;-1.518;2022-12-18T16:09:57;5.10;99.90
31809;DHT22;18379;48.208;-1.518;2022-12-18T16:14:58;5.20;99.90
31809;DHT22;18379;48.208;-1.518;2022-12-18T16:20:00;5.30;99.90
31809;DHT22;18379;48.208;-1.518;2022-12-18T16:25:26;5.40;99.90
31809;DHT22;18379;48.208;-1.518;2022-12-18T16:30:29;5.50;99.90
31809;DHT22;18379;48.208;-1.518;2022-12-18T16:35:32;5.80;99.90
31809;DHT22;18379;48.208;-1.518;2022-12-18T16:40:33;6.00;99.90
31809;DHT22;18379;48.208;-1.518;2022-12-18T16:45:54;6.20;99.90
31809;DHT22;18379;48.208;-1.518;2022-12-18T16:51:04;6.30;99.90
31809;DHT22;18379;48.208;-1.518;2022-12-18T16:56:07;6.30;99.90
31809;DHT22;18379;48.208;-1.518;2022-12-18T17:01:12;6.40;99.90
31809;DHT22;18379;48.208;-1.518;2022-12-18T17:06:19;6.50;99.90
31809;DHT22;18379;48.208;-1.518;2022-12-18T17:11:22;6.60;99.90
31809;DHT22;18379;48.208;-1.518;2022-12-18T17:16:28;6.60;99.90
31809;DHT22;18379;48.208;-1.518;2022-12-18T17:21:30;6.60;99.90
31809;DHT22;18379;48.208;-1.518;2022-12-18T17:26:35;6.70;99.90
31809;DHT22;18379;48.208;-1.518;2022-12-18T17:31:37;6.90;99.90
31809;DHT22;18379;48.208;-1.518;2022-12-18T17:36:41;6.90;99.90
31809;DHT22;18379;48.208;-1.518;2022-12-18T17:41:44;7.00;99.90
31809;DHT22;18379;48.208;-1.518;2022-12-18T17:46:45;7.00;99.90
31809;DHT22;18379;48.208;-1.518;2022-12-18T17:51:47;7.10;99.90
31809;DHT22;18379;48.208;-1.518;2022-12-18T17:56:51;7.10;99.90
31809;DHT22;18379;48.208;-1.518;2022-12-18T18:02:01;7.10;99.90
31809;DHT22;18379;48.208;-1.518;2022-12-18T18:07:02;7.20;99.90
31809;DHT22;18379;48.208;-1.518;2022-12-18T18:12:07;7.20;99.90
31809;DHT22;18379;48.208;-1.518;2022-12-18T18:17:29;7.30;99.90
31809;DHT22;18379;48.208;-1.518;2022-12-18T18:22:42;7.30;99.90
31809;DHT22;18379;48.208;-1.518;2022-12-18T18:27:55;7.40;99.90
31809;DHT22;18379;48.208;-1.518;2022-12-18T18:33:00;7.60;99.90
31809;DHT22;18379;48.208;-1.518;2022-12-18T18:38:01;7.70;99.90
31809;DHT22;18379;48.208;-1.518;2022-12-18T18:43:04;7.80;99.90
31809;DHT22;18379;48.208;-1.518;2022-12-18T18:48:06;7.80;99.90
31809;DHT22;18379;48.208;-1.518;2022-12-18T18:53:06;7.90;99.90
31809;DHT22;18379;48.208;-1.518;2022-12-18T18:58:07;7.90;99.90
31809;DHT22;18379;48.208;-1.518;2022-12-18T19:03:08;8.00;99.90
31809;DHT22;18379;48.208;-1.518;2022-12-18T19:08:09;8.00;99.90
31809;DHT22;18379;48.208;-1.518;2022-12-18T19:13:12;8.10;99.90
31809;DHT22;18379;48.208;-1.518;2022-12-18T19:18:24;8.20;99.90
31809;DHT22;18379;48.208;-1.518;2022-12-18T19:23:25;8.30;99.90
31809;DHT22;18379;48.208;-1.518;2022-12-18T19:28:26;8.40;99.90
31809;DHT22;18379;48.208;-1.518;2022-12-18T19:33:34;8.50;99.90
31809;DHT22;18379;48.208;-1.518;2022-12-18T19:38:35;8.60;99.90
31809;DHT22;18379;48.208;-1.518;2022-12-18T19:43:37;8.70;99.90
31809;DHT22;18379;48.208;-1.518;2022-12-18T19:48:38;8.80;99.90
31809;DHT22;18379;48.208;-1.518;2022-12-18T19:53:38;8.90;99.90
31809;DHT22;18379;48.208;-1.518;2022-12-18T19:58:39;8.90;99.90
31809;DHT22;18379;48.208;-1.518;2022-12-18T20:03:40;9.00;99.90
31809;DHT22;18379;48.208;-1.518;2022-12-18T20:08:41;9.00;99.90
31809;DHT22;18379;48.208;-1.518;2022-12-18T20:13:42;9.10;99.90
31809;DHT22;18379;48.208;-1.518;2022-12-18T20:18:43;9.10;99.90
31809;DHT22;18379;48.208;-1.518;2022-12-18T20:23:44;9.20;99.90
31809;DHT22;18379;48.208;-1.518;2022-12-18T20:28:45;9.10;99.90
31809;DHT22;18379;48.208;-1.518;2022-12-18T20:33:46;9.10;99.90
31809;DHT22;18379;48.208;-1.518;2022-12-18T20:38:47;9.20;99.90
31809;DHT22;18379;48.208;-1.518;2022-12-18T20:43:48;9.20;99.90
31809;DHT22;18379;48.208;-1.518;2022-12-18T20:48:49;9.20;99.90
31809;DHT22;18379;48.208;-1.518;2022-12-18T20:53:51;9.20;99.90
31809;DHT22;18379;48.208;-1.518;2022-12-18T20:58:56;9.20;99.90
31809;DHT22;18379;48.208;-1.518;2022-12-18T21:03:57;9.20;99.90
31809;DHT22;18379;48.208;-1.518;2022-12-18T21:08:58;9.30;99.90
31809;DHT22;18379;48.208;-1.518;2022-12-18T21:14:00;9.30;99.90
31809;DHT22;18379;48.208;-1.518;2022-12-18T21:19:01;9.30;99.90
31809;DHT22;18379;48.208;-1.518;2022-12-18T21:24:02;9.30;99.90
31809;DHT22;18379;48.208;-1.518;2022-12-18T21:29:06;9.40;99.90
31809;DHT22;18379;48.208;-1.518;2022-12-18T21:34:09;9.40;99.90
31809;DHT22;18379;48.208;-1.518;2022-12-18T21:39:11;9.50;99.90
31809;DHT22;18379;48.208;-1.518;2022-12-18T21:44:14;9.50;99.90
31809;DHT22;18379;48.208;-1.518;2022-12-18T21:49:16;9.50;99.90
31809;DHT22;18379;48.208;-1.518;2022-12-18T21:54:18;9.60;99.90
31809;DHT22;18379;48.208;-1.518;2022-12-18T22:04:22;9.60;99.90
31809;DHT22;18379;48.208;-1.518;2022-12-18T22:09:24;9.70;99.90
31809;DHT22;18379;48.208;-1.518;2022-12-18T22:14:25;9.70;99.90
31809;DHT22;18379;48.208;-1.518;2022-12-18T22:19:26;9.80;99.90
31809;DHT22;18379;48.208;-1.518;2022-12-18T22:24:27;9.80;99.90
31809;DHT22;18379;48.208;-1.518;2022-12-18T22:29:28;9.80;99.90
31809;DHT22;18379;48.208;-1.518;2022-12-18T22:34:48;9.80;99.90
31809;DHT22;18379;48.208;-1.518;2022-12-18T22:39:49;9.80;99.90
31809;DHT22;18379;48.208;-1.518;2022-12-18T22:44:50;9.80;99.90
31809;DHT22;18379;48.208;-1.518;2022-12-18T22:49:51;9.90;99.90
31809;DHT22;18379;48.208;-1.518;2022-12-18T22:54:52;9.90;99.90
31809;DHT22;18379;48.208;-1.518;2022-12-18T22:59:53;9.90;99.90
31809;DHT22;18379;48.208;-1.518;2022-12-18T23:04:54;10.00;99.90
31809;DHT22;18379;48.208;-1.518;2022-12-18T23:09:55;10.00;99.90
31809;DHT22;18379;48.208;-1.518;2022-12-18T23:14:56;10.10;99.90
31809;DHT22;18379;48.208;-1.518;2022-12-18T23:19:56;10.10;99.90
31809;DHT22;18379;48.208;-1.518;2022-12-18T23:24:57;10.00;99.90
31809;DHT22;18379;48.208;-1.518;2022-12-18T23:29:58;10.10;99.90
31809;DHT22;18379;48.208;-1.518;2022-12-18T23:34:59;10.10;99.90
31809;DHT22;18379;48.208;-1.518;2022-12-18T23:39:59;10.10;99.90
31809;DHT22;18379;48.208;-1.518;2022-12-18T23:45:00;10.10;99.90
31809;DHT22;18379;48.208;-1.518;2022-12-18T23:50:01;10.10;99.90
31809;DHT22;18379;48.208;-1.518;2022-12-18T23:55:02;10.10;99.90
